Time;durP1;ratioP1;P1;durP2;ratioP2;P2;SDS_P1;SDS_P2;PMS_P1;PMS_P2;Temp;Humidity;BMP_temperature;BMP_pressure;BME280_temperature;BME280_humidity;BME280_pressure;Samples;Min_cycle;Max_cycle;Signal;HPM_P1;HPM_P2
2023/05/23 00:02:12;;;;;;;37.53;13.40;;;;;;;;;;5091610;27;20044;-70
2023/05/23 00:04:38;;;;;;;28.80;12.20;;;;;;;;;;5091243;27;20066;-70
2023/05/23 00:07:04;;;;;;;45.40;14.05;;;;;;;;;;5092224;27;20058;-70
2023/05/23 00:09:30;;;;;;;35.38;13.68;;;;;;;;;;5095840;27;20036;-70
2023/05/23 00:11:57;;;;;;;36.30;13.32;;;;;;;;;;5094276;27;20074;-70
2023/05/23 00:14:23;;;;;;;33.67;11.68;;;;;;;;;;5097392;27;20327;-70
2023/05/23 00:16:50;;;;;;;30.00;11.77;;;;;;;;;;5090790;27;20160;-70
2023/05/23 00:19:16;;;;;;;31.05;11.10;;;;;;;;;;5092644;27;20048;-70
2023/05/23 00:21:44;;;;;;;28.83;10.82;;;;;;;;;;5091892;27;20430;-70
2023/05/23 00:24:10;;;;;;;35.10;11.45;;;;;;;;;;5092026;28;20173;-70
2023/05/23 00:26:37;;;;;;;29.40;11.27;;;;;;;;;;5091330;28;20138;-70
2023/05/23 00:29:03;;;;;;;29.70;9.88;;;;;;;;;;5090320;28;20143;-70
2023/05/23 00:31:30;;;;;;;29.08;10.85;;;;;;;;;;5104021;27;20046;-71
2023/05/23 00:33:56;;;;;;;24.42;8.98;;;;;;;;;;5093144;27;20077;-71
2023/05/23 00:36:22;;;;;;;25.38;11.15;;;;;;;;;;5094848;28;20047;-71
2023/05/23 00:38:48;;;;;;;29.25;10.32;;;;;;;;;;5099072;27;20048;-70
2023/05/23 00:41:17;;;;;;;32.97;11.93;;;;;;;;;;5099967;28;20122;-70
2023/05/23 00:43:43;;;;;;;26.83;10.25;;;;;;;;;;5079471;28;20070;-71
2023/05/23 00:46:10;;;;;;;22.15;10.50;;;;;;;;;;5097795;28;20626;-71
2023/05/23 00:48:37;;;;;;;22.20;10.50;;;;;;;;;;5098102;28;20062;-71
2023/05/23 00:51:03;;;;;;;21.58;10.15;;;;;;;;;;5094987;28;20567;-71
2023/05/23 00:53:30;;;;;;;26.98;10.38;;;;;;;;;;5098000;28;20036;-70
2023/05/23 00:55:56;;;;;;;31.33;10.57;;;;;;;;;;5102031;28;20069;-71
2023/05/23 00:58:23;;;;;;;22.08;10.18;;;;;;;;;;5097990;28;20043;-71
2023/05/23 01:00:49;;;;;;;28.83;11.13;;;;;;;;;;5099308;27;20043;-71
2023/05/23 01:03:16;;;;;;;25.83;10.80;;;;;;;;;;5102598;27;20395;-70
2023/05/23 01:05:43;;;;;;;29.60;10.63;;;;;;;;;;5104580;27;20058;-71
2023/05/23 01:08:09;;;;;;;26.10;10.88;;;;;;;;;;5098465;27;20058;-71
2023/05/23 01:10:36;;;;;;;22.85;10.32;;;;;;;;;;5100047;27;20074;-70
2023/05/23 01:13:08;;;;;;;22.73;10.35;;;;;;;;;;5098731;27;20044;-70
2023/05/23 01:15:38;;;;;;;29.98;9.00;;;;;;;;;;5099098;27;20673;-70
2023/05/23 01:18:11;;;;;;;23.30;10.98;;;;;;;;;;5091913;27;20101;-70
2023/05/23 01:20:37;;;;;;;31.92;10.73;;;;;;;;;;5097142;27;20075;-70
2023/05/23 01:23:03;;;;;;;25.95;10.40;;;;;;;;;;5079914;28;21978;-71
2023/05/23 01:25:46;;;;;;;25.52;9.30;;;;;;;;;;5101690;27;20056;-71
2023/05/23 01:28:16;;;;;;;24.55;10.50;;;;;;;;;;5132924;27;20055;-70
2023/05/23 01:30:44;;;;;;;27.58;9.90;;;;;;;;;;5093607;27;20043;-70
2023/05/23 01:33:11;;;;;;;23.95;9.60;;;;;;;;;;5095190;27;20062;-70
2023/05/23 01:35:37;;;;;;;26.27;9.40;;;;;;;;;;5095571;27;20122;-70
2023/05/23 01:38:03;;;;;;;22.42;9.30;;;;;;;;;;5096651;27;20052;-70
2023/05/23 01:40:30;;;;;;;18.38;8.18;;;;;;;;;;5108519;27;20054;-70
2023/05/23 01:42:56;;;;;;;22.63;8.00;;;;;;;;;;5094237;27;20051;-71
2023/05/23 01:45:25;;;;;;;23.30;8.25;;;;;;;;;;5093182;27;20136;-71
2023/05/23 01:47:52;;;;;;;20.90;8.35;;;;;;;;;;5128799;27;20062;-70
2023/05/23 01:50:18;;;;;;;22.88;6.70;;;;;;;;;;5097428;27;20047;-70
2023/05/23 01:52:45;;;;;;;19.35;7.88;;;;;;;;;;5105044;27;20088;-71
2023/05/23 01:55:13;;;;;;;21.50;7.60;;;;;;;;;;5095350;27;20075;-70
2023/05/23 01:57:39;;;;;;;23.48;8.02;;;;;;;;;;5111177;27;20051;-70
2023/05/23 02:00:06;;;;;;;27.55;8.93;;;;;;;;;;5129823;27;20143;-71
2023/05/23 02:02:33;;;;;;;25.05;7.28;;;;;;;;;;5092875;27;20096;-70
2023/05/23 02:04:59;;;;;;;20.05;7.53;;;;;;;;;;5092245;27;20055;-70
2023/05/23 02:07:25;;;;;;;19.17;7.82;;;;;;;;;;5108819;27;20067;-70
2023/05/23 02:09:51;;;;;;;24.58;8.55;;;;;;;;;;5092751;27;20055;-70
2023/05/23 02:12:18;;;;;;;27.42;8.90;;;;;;;;;;5090235;27;20461;-70
2023/05/23 02:14:44;;;;;;;24.75;9.10;;;;;;;;;;5123684;27;20552;-70
2023/05/23 02:17:10;;;;;;;24.80;9.05;;;;;;;;;;5095718;27;20467;-70
2023/05/23 02:19:36;;;;;;;26.13;8.88;;;;;;;;;;5096147;27;20040;-71
2023/05/23 02:22:03;;;;;;;28.05;8.25;;;;;;;;;;5089862;27;20062;-70
2023/05/23 02:24:29;;;;;;;22.42;7.72;;;;;;;;;;5096245;27;20148;-70
2023/05/23 02:26:55;;;;;;;22.05;7.60;;;;;;;;;;5094805;27;20059;-70
2023/05/23 02:29:22;;;;;;;20.80;8.48;;;;;;;;;;5092844;27;20552;-70
2023/05/23 02:31:48;;;;;;;22.45;8.55;;;;;;;;;;5094728;27;20397;-71
2023/05/23 02:34:14;;;;;;;20.65;7.30;;;;;;;;;;5101331;27;20036;-70
2023/05/23 02:36:40;;;;;;;22.85;7.30;;;;;;;;;;5129133;27;20043;-70
2023/05/23 02:39:06;;;;;;;17.98;7.07;;;;;;;;;;5097393;27;20073;-70
2023/05/23 02:41:32;;;;;;;22.65;7.25;;;;;;;;;;5095945;27;21164;-71
2023/05/23 02:43:59;;;;;;;20.30;6.75;;;;;;;;;;5101583;27;20047;-71
2023/05/23 02:46:25;;;;;;;22.15;6.82;;;;;;;;;;5117666;27;20048;-70
2023/05/23 02:48:51;;;;;;;25.45;7.05;;;;;;;;;;5099322;27;20067;-71
2023/05/23 02:51:17;;;;;;;16.05;6.40;;;;;;;;;;5104893;27;20466;-70
2023/05/23 02:53:43;;;;;;;16.30;5.93;;;;;;;;;;5107297;27;20464;-71
2023/05/23 02:56:10;;;;;;;17.20;6.13;;;;;;;;;;5108644;28;20055;-71
2023/05/23 02:58:36;;;;;;;14.40;5.47;;;;;;;;;;5097720;27;20051;-71
2023/05/23 03:01:02;;;;;;;17.85;6.05;;;;;;;;;;5107560;27;20047;-70
2023/05/23 03:03:30;;;;;;;18.02;4.97;;;;;;;;;;5095535;28;20035;-70
2023/05/23 03:05:57;;;;;;;16.42;5.07;;;;;;;;;;5098380;27;20130;-70
2023/05/23 03:08:23;;;;;;;23.15;6.18;;;;;;;;;;5095779;27;20135;-71
2023/05/23 03:10:49;;;;;;;18.58;5.03;;;;;;;;;;5094632;27;20352;-71
2023/05/23 03:13:16;;;;;;;20.05;5.15;;;;;;;;;;5091382;28;20129;-71
2023/05/23 03:15:42;;;;;;;17.83;5.53;;;;;;;;;;5131113;27;20128;-71
2023/05/23 03:18:08;;;;;;;20.88;5.10;;;;;;;;;;5096631;27;20048;-71
2023/05/23 03:20:34;;;;;;;19.17;5.70;;;;;;;;;;5096130;27;20081;-71
2023/05/23 03:23:00;;;;;;;16.90;7.20;;;;;;;;;;5090658;28;20070;-71
2023/05/23 03:25:26;;;;;;;17.67;6.50;;;;;;;;;;5091001;27;20073;-71
2023/05/23 03:27:53;;;;;;;26.58;7.20;;;;;;;;;;5094295;27;21758;-71
2023/05/23 03:30:19;;;;;;;21.65;7.25;;;;;;;;;;5092110;27;20048;-71
2023/05/23 03:32:45;;;;;;;18.85;6.10;;;;;;;;;;5093680;27;20071;-70
2023/05/23 03:35:11;;;;;;;18.67;6.28;;;;;;;;;;5099915;27;20040;-71
2023/05/23 03:37:37;;;;;;;22.92;7.43;;;;;;;;;;5124021;27;20048;-71
2023/05/23 03:40:04;;;;;;;15.93;6.07;;;;;;;;;;5089886;27;20108;-71
2023/05/23 03:42:30;;;;;;;21.40;6.00;;;;;;;;;;5093482;27;20440;-71
2023/05/23 03:44:56;;;;;;;19.35;5.40;;;;;;;;;;5093491;27;21084;-71
2023/05/23 03:47:23;;;;;;;13.52;5.00;;;;;;;;;;5088404;27;20032;-70
2023/05/23 03:49:49;;;;;;;17.92;5.40;;;;;;;;;;5090971;27;20119;-70
2023/05/23 03:52:15;;;;;;;15.65;4.63;;;;;;;;;;5107950;27;20043;-71
2023/05/23 03:54:42;;;;;;;21.48;5.25;;;;;;;;;;5092789;27;20044;-70
2023/05/23 03:57:08;;;;;;;16.73;5.32;;;;;;;;;;5091198;27;20115;-70
2023/05/23 03:59:34;;;;;;;20.05;5.38;;;;;;;;;;5092699;27;20036;-70
2023/05/23 04:02:00;;;;;;;18.00;5.15;;;;;;;;;;5088489;27;20067;-70
2023/05/23 04:04:27;;;;;;;10.90;4.68;;;;;;;;;;5096454;27;21623;-71
2023/05/23 04:06:53;;;;;;;12.45;4.68;;;;;;;;;;5089844;27;20156;-71
2023/05/23 04:09:19;;;;;;;16.45;4.40;;;;;;;;;;5091135;27;20044;-71
2023/05/23 04:11:46;;;;;;;15.60;5.45;;;;;;;;;;5092421;27;20088;-70
2023/05/23 04:14:12;;;;;;;19.73;6.22;;;;;;;;;;5087590;27;20060;-71
2023/05/23 04:16:40;;;;;;;17.92;6.72;;;;;;;;;;5093894;27;20090;-70
2023/05/23 04:19:06;;;;;;;16.73;5.18;;;;;;;;;;5090044;27;20062;-70
2023/05/23 04:21:33;;;;;;;14.63;5.15;;;;;;;;;;5090526;27;20898;-71
2023/05/23 04:24:00;;;;;;;21.65;5.97;;;;;;;;;;5094607;27;20047;-71
2023/05/23 04:26:27;;;;;;;17.02;5.32;;;;;;;;;;5093459;28;20051;-70
2023/05/23 04:28:54;;;;;;;11.52;4.72;;;;;;;;;;5089193;27;20105;-71
2023/05/23 04:31:21;;;;;;;13.35;5.03;;;;;;;;;;5093502;27;20178;-71
2023/05/23 04:33:47;;;;;;;16.33;4.63;;;;;;;;;;5091174;28;20051;-71
2023/05/23 04:36:14;;;;;;;25.02;6.60;;;;;;;;;;5092918;28;20505;-70
2023/05/23 04:38:40;;;;;;;22.15;6.55;;;;;;;;;;5090911;28;20048;-70
2023/05/23 04:41:08;;;;;;;21.58;5.65;;;;;;;;;;5110874;27;20059;-71
2023/05/23 04:43:41;;;;;;;15.73;5.30;;;;;;;;;;5091950;28;20699;-71
2023/05/23 04:46:08;;;;;;;12.73;5.50;;;;;;;;;;5093984;28;20056;-71
2023/05/23 04:48:36;;;;;;;16.00;5.28;;;;;;;;;;5096555;28;20043;-70
2023/05/23 04:51:06;;;;;;;16.90;5.75;;;;;;;;;;5109293;28;20522;-71
2023/05/23 04:53:32;;;;;;;15.90;5.20;;;;;;;;;;5107658;28;20088;-70
2023/05/23 04:55:59;;;;;;;16.63;5.78;;;;;;;;;;5112270;28;20036;-71
2023/05/23 04:58:25;;;;;;;21.92;6.00;;;;;;;;;;5115280;28;20134;-71
2023/05/23 05:00:51;;;;;;;16.70;6.07;;;;;;;;;;5113599;27;20054;-71
2023/05/23 05:03:17;;;;;;;17.83;6.05;;;;;;;;;;5110012;28;20086;-71
2023/05/23 05:05:43;;;;;;;19.75;6.38;;;;;;;;;;5102717;28;20069;-70
2023/05/23 05:08:10;;;;;;;18.58;6.97;;;;;;;;;;5105577;28;20047;-69
2023/05/23 05:10:36;;;;;;;17.30;5.95;;;;;;;;;;5104038;28;20039;-69
2023/05/23 05:13:02;;;;;;;24.05;6.38;;;;;;;;;;5102985;28;20048;-69
2023/05/23 05:15:28;;;;;;;22.67;6.45;;;;;;;;;;5094790;28;20055;-69
2023/05/23 05:17:55;;;;;;;12.45;4.15;;;;;;;;;;5097201;28;20051;-67
2023/05/23 05:20:21;;;;;;;11.85;3.65;;;;;;;;;;5096705;28;20039;-67
2023/05/23 05:22:47;;;;;;;13.82;4.50;;;;;;;;;;5135492;27;20070;-68
2023/05/23 05:25:13;;;;;;;17.38;3.75;;;;;;;;;;5101572;28;20050;-67
2023/05/23 05:27:40;;;;;;;17.17;5.47;;;;;;;;;;5098209;28;20100;-67
2023/05/23 05:30:08;;;;;;;22.20;4.65;;;;;;;;;;5099436;28;20502;-68
2023/05/23 05:32:34;;;;;;;23.33;5.82;;;;;;;;;;5108406;27;20055;-69
2023/05/23 05:35:01;;;;;;;17.25;4.00;;;;;;;;;;5135325;27;20051;-70
2023/05/23 05:37:27;;;;;;;13.68;3.85;;;;;;;;;;5102818;28;20047;-70
2023/05/23 05:39:53;;;;;;;16.27;4.45;;;;;;;;;;5103420;28;20100;-70
2023/05/23 05:42:20;;;;;;;13.98;3.53;;;;;;;;;;5098870;27;20778;-68
2023/05/23 05:44:47;;;;;;;18.38;4.10;;;;;;;;;;5101855;28;20048;-67
2023/05/23 05:47:13;;;;;;;18.75;4.20;;;;;;;;;;5096942;27;20051;-75
2023/05/23 05:49:39;;;;;;;18.48;3.60;;;;;;;;;;5100874;27;20450;-67
2023/05/23 05:52:07;;;;;;;17.38;3.88;;;;;;;;;;5109951;27;20100;-68
2023/05/23 05:54:33;;;;;;;19.67;3.90;;;;;;;;;;5110561;27;20043;-68
2023/05/23 05:56:59;;;;;;;14.07;3.45;;;;;;;;;;5098126;27;20070;-68
2023/05/23 05:59:25;;;;;;;17.15;3.42;;;;;;;;;;5103225;27;20032;-69
2023/05/23 06:01:52;;;;;;;17.58;4.68;;;;;;;;;;5104225;27;20050;-68
2023/05/23 06:04:18;;;;;;;17.52;4.07;;;;;;;;;;5105760;27;20478;-68
2023/05/23 06:06:44;;;;;;;15.82;4.35;;;;;;;;;;5106000;27;20055;-68
2023/05/23 06:09:11;;;;;;;18.60;4.13;;;;;;;;;;5116419;27;20051;-68
2023/05/23 06:11:39;;;;;;;19.92;4.55;;;;;;;;;;5105631;27;20040;-65
2023/05/23 06:14:06;;;;;;;28.83;5.00;;;;;;;;;;5105528;27;20127;-67
2023/05/23 06:16:32;;;;;;;14.68;3.88;;;;;;;;;;5107467;27;20043;-67
2023/05/23 06:18:58;;;;;;;19.13;4.97;;;;;;;;;;5108904;27;20399;-68
2023/05/23 06:21:24;;;;;;;19.73;3.97;;;;;;;;;;5105567;27;20043;-68
2023/05/23 06:23:51;;;;;;;15.13;3.80;;;;;;;;;;5104588;27;20046;-67
2023/05/23 06:26:17;;;;;;;20.70;3.95;;;;;;;;;;5106453;27;20395;-68
2023/05/23 06:28:43;;;;;;;19.33;3.80;;;;;;;;;;5104827;27;20058;-67
2023/05/23 06:31:09;;;;;;;18.60;3.33;;;;;;;;;;5113140;27;20123;-67
2023/05/23 06:33:35;;;;;;;20.70;4.15;;;;;;;;;;5106256;27;20101;-67
2023/05/23 06:36:02;;;;;;;25.80;4.90;;;;;;;;;;5105934;27;20043;-67
2023/05/23 06:38:29;;;;;;;20.88;3.58;;;;;;;;;;5106950;27;20039;-67
2023/05/23 06:40:55;;;;;;;19.05;4.53;;;;;;;;;;5106308;27;20483;-67
2023/05/23 06:43:21;;;;;;;28.27;4.72;;;;;;;;;;5106153;27;20039;-67
2023/05/23 06:45:47;;;;;;;19.77;3.88;;;;;;;;;;5106715;27;20043;-67
2023/05/23 06:48:14;;;;;;;26.33;5.00;;;;;;;;;;5103957;27;20483;-67
2023/05/23 06:50:40;;;;;;;31.38;5.93;;;;;;;;;;5104156;27;20047;-67
2023/05/23 06:53:06;;;;;;;23.90;4.38;;;;;;;;;;5105813;27;20499;-67
2023/05/23 06:55:33;;;;;;;16.52;3.08;;;;;;;;;;5106458;27;20074;-67
2023/05/23 06:57:59;;;;;;;17.55;4.03;;;;;;;;;;5106584;27;20048;-67
2023/05/23 07:00:25;;;;;;;20.73;3.47;;;;;;;;;;5106260;27;20065;-67
2023/05/23 07:02:52;;;;;;;16.83;2.75;;;;;;;;;;5107350;27;20127;-67
2023/05/23 07:05:18;;;;;;;16.13;4.15;;;;;;;;;;5105894;27;20044;-67
2023/05/23 07:07:44;;;;;;;19.67;4.00;;;;;;;;;;5139917;27;20051;-67
2023/05/23 07:10:10;;;;;;;21.88;3.95;;;;;;;;;;5106186;27;20115;-67
2023/05/23 07:12:36;;;;;;;21.48;3.83;;;;;;;;;;5107324;27;20187;-66
2023/05/23 07:15:03;;;;;;;16.45;3.13;;;;;;;;;;5106757;27;20047;-67
2023/05/23 07:17:29;;;;;;;20.10;5.30;;;;;;;;;;5111445;27;20075;-67
2023/05/23 07:19:55;;;;;;;25.45;3.78;;;;;;;;;;5107610;27;20118;-67
2023/05/23 07:22:21;;;;;;;17.90;3.70;;;;;;;;;;5106700;27;20043;-67
2023/05/23 07:24:48;;;;;;;20.23;5.20;;;;;;;;;;5106844;27;20044;-67
2023/05/23 07:27:14;;;;;;;18.08;3.88;;;;;;;;;;5104847;27;20052;-67
2023/05/23 07:29:40;;;;;;;20.48;3.60;;;;;;;;;;5105907;27;20062;-67
2023/05/23 07:32:06;;;;;;;23.42;4.25;;;;;;;;;;5102721;27;20103;-67
2023/05/23 07:34:32;;;;;;;17.25;5.05;;;;;;;;;;5108877;28;20043;-68
2023/05/23 07:36:58;;;;;;;19.85;4.53;;;;;;;;;;5105858;27;20563;-65
2023/05/23 07:39:26;;;;;;;23.20;5.30;;;;;;;;;;5102814;27;20949;-66
2023/05/23 07:41:52;;;;;;;16.45;4.25;;;;;;;;;;5105983;27;20054;-67
2023/05/23 07:44:19;;;;;;;20.63;4.15;;;;;;;;;;5104981;27;20088;-66
2023/05/23 07:46:45;;;;;;;13.60;3.38;;;;;;;;;;5101402;27;20513;-66
2023/05/23 07:49:11;;;;;;;19.33;4.47;;;;;;;;;;5107528;27;20042;-66
2023/05/23 07:51:37;;;;;;;22.25;4.65;;;;;;;;;;5105083;27;20059;-66
2023/05/23 07:54:03;;;;;;;23.02;4.60;;;;;;;;;;5097288;27;20126;-66
2023/05/23 07:56:30;;;;;;;18.45;3.55;;;;;;;;;;5106894;27;20040;-66
2023/05/23 07:58:56;;;;;;;20.25;4.53;;;;;;;;;;5106799;27;20039;-66
2023/05/23 08:01:23;;;;;;;17.48;3.78;;;;;;;;;;5103676;27;20190;-66
2023/05/23 08:03:49;;;;;;;14.88;3.35;;;;;;;;;;5103417;27;20055;-66
2023/05/23 08:06:16;;;;;;;17.67;4.70;;;;;;;;;;5105594;27;20043;-66
2023/05/23 08:08:42;;;;;;;17.83;4.53;;;;;;;;;;5104796;28;20039;-65
2023/05/23 08:11:09;;;;;;;17.05;3.42;;;;;;;;;;5108661;28;20433;-66
2023/05/23 08:13:35;;;;;;;15.55;3.33;;;;;;;;;;5109070;28;20139;-66
2023/05/23 08:16:01;;;;;;;18.23;3.70;;;;;;;;;;5109257;27;20094;-66
2023/05/23 08:18:29;;;;;;;18.52;4.50;;;;;;;;;;5109138;28;20040;-66
2023/05/23 08:20:55;;;;;;;20.13;4.20;;;;;;;;;;5108437;27;20490;-66
2023/05/23 08:23:21;;;;;;;21.60;4.53;;;;;;;;;;5104231;27;20043;-66
2023/05/23 08:25:48;;;;;;;15.02;3.17;;;;;;;;;;5110699;27;20042;-67
2023/05/23 08:28:15;;;;;;;20.73;4.53;;;;;;;;;;5095275;27;20056;-66
2023/05/23 08:30:42;;;;;;;17.17;3.78;;;;;;;;;;5105146;27;20046;-67
2023/05/23 08:33:08;;;;;;;16.60;4.00;;;;;;;;;;5104407;28;20051;-67
2023/05/23 08:35:35;;;;;;;15.73;4.05;;;;;;;;;;5103590;28;20051;-68
2023/05/23 08:38:04;;;;;;;18.33;4.35;;;;;;;;;;5102922;28;20525;-67
2023/05/23 08:40:31;;;;;;;27.90;6.30;;;;;;;;;;5105198;28;20047;-69
2023/05/23 08:42:58;;;;;;;26.00;4.90;;;;;;;;;;5104520;28;20464;-67
2023/05/23 08:45:24;;;;;;;17.45;4.07;;;;;;;;;;5105256;28;20086;-67
2023/05/23 08:47:51;;;;;;;18.35;3.63;;;;;;;;;;5103738;28;20044;-67
2023/05/23 08:50:18;;;;;;;23.45;3.65;;;;;;;;;;5103615;28;20084;-67
2023/05/23 08:52:49;;;;;;;18.15;3.15;;;;;;;;;;5136611;27;20048;-67
2023/05/23 08:55:15;;;;;;;19.80;4.20;;;;;;;;;;5104581;28;20089;-67
2023/05/23 08:57:44;;;;;;;12.73;3.65;;;;;;;;;;5105421;28;20055;-67
2023/05/23 09:00:13;;;;;;;15.18;3.33;;;;;;;;;;5104811;28;20039;-67
2023/05/23 09:02:42;;;;;;;14.88;4.40;;;;;;;;;;5104182;28;20055;-67
2023/05/23 09:05:09;;;;;;;15.88;3.25;;;;;;;;;;5103750;28;20051;-67
2023/05/23 09:07:36;;;;;;;18.08;4.25;;;;;;;;;;5104228;28;20040;-67
2023/05/23 09:10:03;;;;;;;14.35;3.65;;;;;;;;;;5101184;28;20051;-67
2023/05/23 09:12:29;;;;;;;12.30;2.88;;;;;;;;;;5135183;27;20142;-67
2023/05/23 09:14:56;;;;;;;16.45;3.65;;;;;;;;;;5103297;28;20043;-67
2023/05/23 09:17:22;;;;;;;20.02;3.83;;;;;;;;;;5103624;28;20036;-67
2023/05/23 09:19:48;;;;;;;20.13;4.03;;;;;;;;;;5103043;28;20123;-67
2023/05/23 09:22:15;;;;;;;16.85;3.30;;;;;;;;;;5107105;27;20115;-67
2023/05/23 09:24:41;;;;;;;18.25;3.58;;;;;;;;;;5107007;27;20131;-67
2023/05/23 09:27:07;;;;;;;23.38;4.22;;;;;;;;;;5106310;27;20063;-67
2023/05/23 09:29:39;;;;;;;16.30;4.05;;;;;;;;;;5111071;27;20123;-67
2023/05/23 09:32:12;;;;;;;17.58;3.47;;;;;;;;;;5108488;27;20446;-67
2023/05/23 09:34:42;;;;;;;18.58;4.55;;;;;;;;;;5108828;27;20039;-68
2023/05/23 09:37:08;;;;;;;17.50;3.78;;;;;;;;;;5108998;27;20048;-66
2023/05/23 09:39:40;;;;;;;18.00;3.60;;;;;;;;;;5111503;27;20039;-68
2023/05/23 09:42:06;;;;;;;13.75;3.45;;;;;;;;;;5108429;27;20370;-69
2023/05/23 09:44:41;;;;;;;16.08;4.03;;;;;;;;;;5108079;27;20364;-68
2023/05/23 09:47:07;;;;;;;15.68;3.03;;;;;;;;;;5110172;27;20150;-68
2023/05/23 09:49:33;;;;;;;16.92;5.18;;;;;;;;;;5111300;27;20054;-68
2023/05/23 09:52:01;;;;;;;19.02;3.80;;;;;;;;;;5109682;27;20040;-69
2023/05/23 09:54:27;;;;;;;16.20;3.97;;;;;;;;;;5112516;28;20043;-66
2023/05/23 09:56:55;;;;;;;17.40;4.00;;;;;;;;;;5110298;27;20052;-65
2023/05/23 09:59:23;;;;;;;21.55;4.22;;;;;;;;;;5108172;27;20595;-68
2023/05/23 10:01:52;;;;;;;19.80;3.47;;;;;;;;;;5140754;27;20039;-74
2023/05/23 10:04:22;;;;;;;27.67;4.18;;;;;;;;;;5111365;27;20551;-70
2023/05/23 10:06:52;;;;;;;26.13;4.75;;;;;;;;;;5107374;27;20048;-72
2023/05/23 10:09:20;;;;;;;15.85;4.60;;;;;;;;;;5145221;27;20052;-72
2023/05/23 10:12:00;;;;;;;17.98;3.60;;;;;;;;;;5106199;27;20386;-71
2023/05/23 10:14:27;;;;;;;17.45;3.10;;;;;;;;;;5102611;27;20068;-71
2023/05/23 10:16:58;;;;;;;15.15;2.97;;;;;;;;;;5102827;27;20047;-66
2023/05/23 10:19:26;;;;;;;13.55;3.45;;;;;;;;;;5102282;27;20044;-67
2023/05/23 10:21:58;;;;;;;16.92;2.75;;;;;;;;;;5101585;27;20155;-67
2023/05/23 10:24:25;;;;;;;18.38;3.22;;;;;;;;;;5104723;27;20395;-67
2023/05/23 10:26:53;;;;;;;17.40;3.90;;;;;;;;;;5098718;27;20200;-67
2023/05/23 10:29:20;;;;;;;15.52;3.60;;;;;;;;;;5103672;27;20410;-67
2023/05/23 10:31:47;;;;;;;11.77;2.95;;;;;;;;;;5103767;27;20444;-67
2023/05/23 10:34:21;;;;;;;18.65;4.35;;;;;;;;;;5101530;27;20092;-67
2023/05/23 10:37:04;;;;;;;12.40;3.00;;;;;;;;;;5101277;27;20055;-67
2023/05/23 10:39:30;;;;;;;21.20;4.20;;;;;;;;;;5100478;27;20043;-67
2023/05/23 10:41:59;;;;;;;17.88;4.15;;;;;;;;;;5100492;27;20035;-67
2023/05/23 10:44:29;;;;;;;13.75;3.58;;;;;;;;;;5134648;27;20157;-67
2023/05/23 10:47:00;;;;;;;15.88;3.03;;;;;;;;;;5101800;27;20387;-68
2023/05/23 10:49:42;;;;;;;22.17;3.30;;;;;;;;;;5097965;27;20048;-68
2023/05/23 10:52:09;;;;;;;16.58;5.95;;;;;;;;;;5100180;27;20048;-68
2023/05/23 10:54:36;;;;;;;17.52;3.42;;;;;;;;;;5099426;27;20043;-74
2023/05/23 10:57:04;;;;;;;15.23;2.65;;;;;;;;;;5099999;27;20051;-67
2023/05/23 10:59:30;;;;;;;16.25;3.63;;;;;;;;;;5096605;27;20079;-66
2023/05/23 11:01:56;;;;;;;17.27;3.60;;;;;;;;;;5103852;27;20465;-67
2023/05/23 11:04:27;;;;;;;13.98;3.45;;;;;;;;;;5101848;27;20521;-67
2023/05/23 11:06:54;;;;;;;20.17;4.20;;;;;;;;;;5106846;27;20123;-67
2023/05/23 11:09:21;;;;;;;12.85;3.03;;;;;;;;;;5098351;27;20051;-67
2023/05/23 11:11:51;;;;;;;16.23;3.20;;;;;;;;;;5103071;27;20122;-67
2023/05/23 11:14:17;;;;;;;14.48;3.78;;;;;;;;;;5099132;27;20109;-67
2023/05/23 11:16:47;;;;;;;22.90;4.13;;;;;;;;;;5096692;27;20042;-67
2023/05/23 11:19:19;;;;;;;14.82;3.17;;;;;;;;;;5102370;27;20040;-66
2023/05/23 11:21:46;;;;;;;14.63;4.30;;;;;;;;;;5099312;28;20043;-67
2023/05/23 11:24:12;;;;;;;17.05;3.42;;;;;;;;;;5100762;27;20089;-67
2023/05/23 11:26:38;;;;;;;12.23;3.13;;;;;;;;;;5099698;27;20059;-67
2023/05/23 11:29:08;;;;;;;13.25;3.88;;;;;;;;;;5099028;27;20168;-67
2023/05/23 11:31:37;;;;;;;10.88;2.63;;;;;;;;;;5129622;27;20118;-67
2023/05/23 11:34:03;;;;;;;17.13;3.88;;;;;;;;;;5099594;27;20459;-67
2023/05/23 11:36:30;;;;;;;13.55;3.63;;;;;;;;;;5101476;27;20126;-67
2023/05/23 11:38:56;;;;;;;18.90;3.70;;;;;;;;;;5101289;27;20036;-67
2023/05/23 11:41:22;;;;;;;18.45;3.22;;;;;;;;;;5100768;28;20051;-67
2023/05/23 11:43:50;;;;;;;16.98;3.75;;;;;;;;;;5098695;28;20047;-67
2023/05/23 11:46:16;;;;;;;19.63;4.28;;;;;;;;;;5099181;27;20130;-67
2023/05/23 11:48:46;;;;;;;16.75;3.80;;;;;;;;;;5101896;28;20420;-67
2023/05/23 11:51:12;;;;;;;18.00;4.00;;;;;;;;;;5098978;27;20043;-66
2023/05/23 11:53:38;;;;;;;16.00;3.13;;;;;;;;;;5095250;27;20067;-66
2023/05/23 11:56:05;;;;;;;13.75;2.97;;;;;;;;;;5100597;27;21182;-66
2023/05/23 11:58:35;;;;;;;11.80;2.85;;;;;;;;;;5099265;27;20360;-67
2023/05/23 12:01:03;;;;;;;15.18;3.05;;;;;;;;;;5104611;27;20168;-67
2023/05/23 12:03:30;;;;;;;15.65;2.65;;;;;;;;;;5099517;27;20496;-67
2023/05/23 12:05:56;;;;;;;15.10;2.63;;;;;;;;;;5097429;27;20100;-67
2023/05/23 12:08:23;;;;;;;11.55;2.85;;;;;;;;;;5101164;27;20182;-66
2023/05/23 12:10:52;;;;;;;16.63;3.67;;;;;;;;;;5100155;27;20051;-67
2023/05/23 12:13:18;;;;;;;13.00;3.35;;;;;;;;;;5098100;27;20570;-67
2023/05/23 12:15:46;;;;;;;10.82;3.00;;;;;;;;;;5097904;27;20076;-67
2023/05/23 12:18:12;;;;;;;8.65;2.78;;;;;;;;;;5098433;28;20059;-66
2023/05/23 12:20:40;;;;;;;12.25;2.95;;;;;;;;;;5096249;27;20039;-66
2023/05/23 12:23:06;;;;;;;12.55;3.17;;;;;;;;;;5099094;27;20471;-66
2023/05/23 12:25:41;;;;;;;10.25;2.50;;;;;;;;;;5098370;27;20048;-66
2023/05/23 12:28:07;;;;;;;15.63;3.28;;;;;;;;;;5097654;27;21719;-67
2023/05/23 12:30:41;;;;;;;16.35;2.83;;;;;;;;;;5109913;27;20090;-68
2023/05/23 12:33:08;;;;;;;10.88;2.97;;;;;;;;;;5104628;27;20048;-66
2023/05/23 12:35:34;;;;;;;12.45;2.70;;;;;;;;;;5101350;27;20039;-66
2023/05/23 12:38:01;;;;;;;11.23;2.70;;;;;;;;;;5102423;28;20043;-67
2023/05/23 12:40:28;;;;;;;8.88;2.33;;;;;;;;;;5104146;27;20074;-67
2023/05/23 12:42:54;;;;;;;12.23;2.60;;;;;;;;;;5107264;28;20039;-67
2023/05/23 12:45:22;;;;;;;12.60;3.15;;;;;;;;;;5106228;28;20270;-66
2023/05/23 12:47:49;;;;;;;17.77;3.30;;;;;;;;;;5103131;28;20048;-66
2023/05/23 12:50:15;;;;;;;14.57;3.90;;;;;;;;;;5113032;27;20158;-67
2023/05/23 12:52:41;;;;;;;11.30;2.88;;;;;;;;;;5100461;28;20112;-67
2023/05/23 12:55:08;;;;;;;11.77;3.00;;;;;;;;;;5138849;27;20110;-66
2023/05/23 12:57:35;;;;;;;13.55;3.05;;;;;;;;;;5107581;27;20141;-66
2023/05/23 13:00:01;;;;;;;9.75;2.53;;;;;;;;;;5094853;27;20122;-66
2023/05/23 13:02:27;;;;;;;16.02;3.55;;;;;;;;;;5120165;27;20039;-66
2023/05/23 13:04:54;;;;;;;12.38;3.17;;;;;;;;;;5110769;27;20440;-66
2023/05/23 13:07:20;;;;;;;11.48;2.97;;;;;;;;;;5111091;27;20039;-66
2023/05/23 13:09:47;;;;;;;7.88;2.60;;;;;;;;;;5109782;27;20107;-67
2023/05/23 13:12:13;;;;;;;13.00;2.50;;;;;;;;;;5106865;27;20043;-67
2023/05/23 13:14:40;;;;;;;13.55;3.47;;;;;;;;;;5116858;27;20058;-66
2023/05/23 13:17:06;;;;;;;17.20;3.50;;;;;;;;;;5109816;27;20494;-67
2023/05/23 13:19:32;;;;;;;13.52;3.22;;;;;;;;;;5117058;27;20035;-66
2023/05/23 13:21:59;;;;;;;14.68;2.35;;;;;;;;;;5112629;27;20168;-66
2023/05/23 13:24:25;;;;;;;8.18;1.80;;;;;;;;;;5102188;27;21090;-66
2023/05/23 13:26:52;;;;;;;12.77;3.33;;;;;;;;;;5087325;27;20043;-67
2023/05/23 13:29:18;;;;;;;8.90;2.15;;;;;;;;;;5107258;27;20048;-66
2023/05/23 13:31:45;;;;;;;13.43;2.95;;;;;;;;;;5108398;27;20036;-66
2023/05/23 13:34:12;;;;;;;13.60;2.78;;;;;;;;;;5105670;27;20123;-67
2023/05/23 13:36:38;;;;;;;15.10;3.40;;;;;;;;;;5105913;27;20096;-66
2023/05/23 13:39:04;;;;;;;15.02;3.70;;;;;;;;;;5108535;28;20069;-66
2023/05/23 13:41:30;;;;;;;17.60;3.22;;;;;;;;;;5109758;27;20157;-66
2023/05/23 13:43:57;;;;;;;12.88;2.80;;;;;;;;;;5111662;27;20509;-66
2023/05/23 13:46:23;;;;;;;12.82;2.88;;;;;;;;;;5110518;27;20446;-67
2023/05/23 13:48:49;;;;;;;12.70;3.05;;;;;;;;;;5108448;27;20042;-67
2023/05/23 13:51:15;;;;;;;10.90;2.50;;;;;;;;;;5112649;27;20126;-66
2023/05/23 13:53:41;;;;;;;10.13;2.80;;;;;;;;;;5102888;27;20995;-66
2023/05/23 13:56:08;;;;;;;9.73;2.40;;;;;;;;;;5096834;27;20043;-66
2023/05/23 13:58:35;;;;;;;13.20;2.13;;;;;;;;;;5095903;27;20063;-67
2023/05/23 14:01:01;;;;;;;12.18;2.20;;;;;;;;;;5101466;27;20139;-67
2023/05/23 14:03:27;;;;;;;10.48;2.40;;;;;;;;;;5109482;27;20048;-67
2023/05/23 14:05:53;;;;;;;13.60;2.78;;;;;;;;;;5102924;27;20047;-67
2023/05/23 14:08:20;;;;;;;9.10;2.60;;;;;;;;;;5103543;27;20055;-67
2023/05/23 14:10:46;;;;;;;14.20;2.97;;;;;;;;;;5106330;27;20050;-67
2023/05/23 14:13:12;;;;;;;10.75;2.65;;;;;;;;;;5133936;27;20108;-67
2023/05/23 14:15:40;;;;;;;12.50;2.70;;;;;;;;;;5107156;27;20031;-67
2023/05/23 14:18:06;;;;;;;10.68;2.38;;;;;;;;;;5103718;27;20074;-67
2023/05/23 14:20:32;;;;;;;15.98;3.33;;;;;;;;;;5101876;27;20114;-67
2023/05/23 14:22:59;;;;;;;8.20;1.75;;;;;;;;;;5102586;27;20387;-67
2023/05/23 14:25:25;;;;;;;14.90;3.10;;;;;;;;;;5103573;27;20042;-67
2023/05/23 14:27:51;;;;;;;14.73;3.10;;;;;;;;;;5131522;27;20173;-67